createdAt,value
2023-01-03T00:10:53.514Z,12.98
2023-01-03T00:32:39.095Z,12.18
2023-01-03T00:54:25.029Z,12.40
2023-01-03T01:16:14.476Z,12.26
2023-01-03T01:44:17.777Z,11.81
2023-01-03T02:06:06.912Z,11.42
2023-01-03T02:28:21.186Z,11.32
2023-01-03T02:50:10.880Z,11.25
2023-01-03T03:12:16.635Z,11.22
2023-01-03T03:34:08.345Z,11.41
2023-01-03T03:55:58.696Z,12.47
2023-01-03T04:17:45.054Z,14.32
2023-01-03T04:44:05.096Z,12.80
2023-01-03T05:05:51.053Z,12.87
2023-01-03T05:43:44.116Z,12.71
2023-01-03T06:05:29.826Z,13.88
2023-01-03T06:27:15.609Z,11.96
2023-01-03T06:49:18.915Z,10.77
2023-01-03T07:11:06.279Z,11.24
2023-01-03T07:43:52.029Z,12.46
2023-01-03T08:05:38.052Z,12.61
2023-01-03T08:27:23.809Z,12.64
2023-01-03T08:49:10.195Z,12.87
2023-01-03T09:10:55.923Z,12.68
2023-01-03T09:32:41.641Z,12.61
2023-01-03T09:54:48.938Z,12.64
2023-01-03T10:16:48.901Z,13.32
2023-01-03T10:38:42.553Z,12.29
2023-01-03T11:00:34.109Z,13.97
2023-01-03T11:22:37.565Z,12.56
2023-01-03T11:44:51.791Z,12.31
2023-01-03T12:06:49.126Z,11.92
2023-01-03T12:28:40.824Z,10.66
2023-01-03T12:50:32.976Z,10.02
2023-01-03T13:12:20.519Z,11.15
2023-01-03T13:43:53.308Z,9.96
2023-01-03T14:05:59.577Z,11.26
2023-01-03T14:27:45.528Z,9.53
2023-01-03T14:49:42.448Z,10.95
2023-01-03T15:11:32.195Z,10.04
2023-01-03T15:43:52.117Z,10.64
2023-01-03T16:05:37.931Z,10.43
2023-01-03T16:27:25.939Z,10.25
2023-01-03T16:49:14.679Z,11.36
2023-01-03T17:19:18.557Z,8.93
2023-01-03T17:41:19.802Z,11.94
2023-01-03T18:03:05.658Z,10.64
2023-01-03T18:24:52.226Z,11.53
2023-01-03T18:46:37.908Z,9.94
2023-01-03T19:08:26.839Z,9.55
2023-01-03T19:30:20.738Z,8.63
2023-01-03T19:52:07.051Z,8.56
2023-01-03T20:13:53.312Z,9.86
2023-01-03T20:57:45.322Z,10.29
2023-01-03T21:19:31.082Z,8.97
2023-01-03T21:41:20.903Z,5.85
2023-01-03T22:03:24.038Z,8.86
2023-01-03T22:43:54.749Z,10.17
2023-01-03T23:05:40.379Z,8.83
2023-01-03T23:27:27.410Z,8.61
2023-01-03T23:49:16.354Z,6.72
